createdAt,value
2018-12-14T00:00:02.423Z,15.87
2018-12-14T00:02:34.911Z,14.17
2018-12-14T00:05:07.592Z,14.33
2018-12-14T00:07:44.195Z,13.90
2018-12-14T00:10:16.834Z,13.37
2018-12-14T00:12:50.206Z,14.43
2018-12-14T00:15:22.747Z,13.40
2018-12-14T00:17:55.283Z,12.97
2018-12-14T00:20:28.467Z,14.60
2018-12-14T00:23:01.526Z,13.17
2018-12-14T00:25:34.007Z,12.53
2018-12-14T00:28:06.379Z,13.50
2018-12-14T00:30:39.098Z,12.97
2018-12-14T00:33:11.663Z,11.17
2018-12-14T00:35:44.393Z,12.53
2018-12-14T00:38:16.952Z,12.80
2018-12-14T00:40:49.633Z,12.47
2018-12-14T00:43:22.167Z,12.50
2018-12-14T00:45:54.698Z,12.27
2018-12-14T00:48:27.389Z,11.40
2018-12-14T00:51:00.940Z,13.57
2018-12-14T00:53:33.457Z,11.40
2018-12-14T00:56:06.008Z,11.33
2018-12-14T00:58:38.693Z,12.60
2018-12-14T01:01:11.448Z,12.43
2018-12-14T01:03:43.953Z,11.80
2018-12-14T01:06:16.585Z,13.00
2018-12-14T01:08:49.242Z,11.97
2018-12-14T01:11:22.802Z,12.00
2018-12-14T01:13:58.017Z,12.33
2018-12-14T01:16:30.435Z,12.43
2018-12-14T01:19:03.091Z,12.37
2018-12-14T01:21:35.726Z,11.37
2018-12-14T01:24:08.337Z,12.83
2018-12-14T01:26:40.903Z,12.83
2018-12-14T01:29:13.462Z,13.10
2018-12-14T01:31:45.992Z,12.87
2018-12-14T01:34:18.583Z,11.70
2018-12-14T01:36:51.267Z,12.43
2018-12-14T01:39:23.923Z,13.23
2018-12-14T01:41:56.397Z,12.93
2018-12-14T01:44:29.027Z,13.13
2018-12-14T01:47:01.634Z,13.87
2018-12-14T01:49:34.185Z,13.60
2018-12-14T01:52:07.094Z,13.47
2018-12-14T01:54:39.720Z,12.70
2018-12-14T01:57:12.156Z,12.67
2018-12-14T01:59:44.554Z,11.90
2018-12-14T02:03:20.860Z,13.17
2018-12-14T02:05:53.683Z,12.83
2018-12-14T02:08:26.608Z,12.50
2018-12-14T02:10:59.423Z,12.33
2018-12-14T02:13:31.977Z,12.50
2018-12-14T02:16:04.531Z,13.93
2018-12-14T02:18:37.251Z,14.33
2018-12-14T02:21:09.937Z,13.20
2018-12-14T02:23:42.498Z,13.77
2018-12-14T02:26:15.146Z,12.87
2018-12-14T02:28:47.741Z,13.00
2018-12-14T02:31:20.337Z,13.03
2018-12-14T02:33:53.068Z,12.37
2018-12-14T02:36:25.971Z,11.57
2018-12-14T02:38:58.586Z,13.20
2018-12-14T02:41:30.937Z,12.47
2018-12-14T02:44:03.945Z,11.70
2018-12-14T02:46:36.517Z,12.80
2018-12-14T02:49:09.301Z,12.60
2018-12-14T02:51:41.814Z,11.83
2018-12-14T02:54:14.387Z,12.43
2018-12-14T02:56:46.903Z,12.00
2018-12-14T02:59:19.391Z,12.40
2018-12-14T03:01:51.825Z,13.93
2018-12-14T03:04:24.449Z,12.63
2018-12-14T03:06:56.941Z,12.67
2018-12-14T03:09:29.670Z,13.87
2018-12-14T03:12:02.120Z,13.13
2018-12-14T03:14:34.881Z,13.77
2018-12-14T03:17:07.501Z,13.17
2018-12-14T03:19:40.085Z,14.30
2018-12-14T03:22:14.026Z,13.93
2018-12-14T03:24:46.651Z,14.30
2018-12-14T03:27:19.140Z,14.90
2018-12-14T03:29:51.579Z,14.60
2018-12-14T03:32:23.983Z,13.90
2018-12-14T03:34:56.507Z,13.93
2018-12-14T03:37:29.035Z,14.40
2018-12-14T03:40:01.689Z,14.53
2018-12-14T03:42:34.811Z,14.93
2018-12-14T03:45:07.648Z,14.17
2018-12-14T03:47:40.294Z,14.30
2018-12-14T03:50:12.696Z,14.70
2018-12-14T03:52:45.276Z,14.17
2018-12-14T03:55:18.388Z,14.73
2018-12-14T03:57:51.637Z,14.83
2018-12-14T04:00:24.361Z,14.83
2018-12-14T04:02:58.319Z,14.43
2018-12-14T04:05:31.313Z,14.67
2018-12-14T04:08:03.899Z,14.93
2018-12-14T04:10:36.423Z,15.40
2018-12-14T04:13:08.840Z,14.37
2018-12-14T04:18:45.130Z,15.87
2018-12-14T04:21:18.552Z,14.60
2018-12-14T04:23:51.267Z,15.77
2018-12-14T04:26:23.819Z,16.63
2018-12-14T04:28:56.476Z,15.63
2018-12-14T04:31:28.866Z,15.63
2018-12-14T04:34:01.161Z,16.83
2018-12-14T04:36:33.529Z,15.50
2018-12-14T04:39:06.650Z,15.97
2018-12-14T04:41:39.169Z,15.90
2018-12-14T04:44:11.461Z,16.27
2018-12-14T04:46:43.817Z,16.50
2018-12-14T04:49:16.236Z,16.47
2018-12-14T04:51:48.620Z,16.50
2018-12-14T04:54:20.905Z,17.90
2018-12-14T04:56:53.390Z,17.83
2018-12-14T04:59:25.688Z,18.00
2018-12-14T05:01:58.173Z,18.33
2018-12-14T05:04:30.615Z,17.63
2018-12-14T05:07:03.272Z,17.37
2018-12-14T05:09:35.569Z,17.83
2018-12-14T05:12:08.056Z,16.40
2018-12-14T05:14:40.664Z,16.20
2018-12-14T05:17:13.010Z,17.20
2018-12-14T05:19:45.360Z,17.63
2018-12-14T05:22:17.801Z,17.07
2018-12-14T05:24:50.278Z,17.33
2018-12-14T05:27:22.797Z,17.73
2018-12-14T05:29:55.666Z,17.43
2018-12-14T05:32:27.963Z,17.13
2018-12-14T05:35:00.482Z,16.73
2018-12-14T05:37:32.798Z,17.93
2018-12-14T05:40:05.284Z,17.53
2018-12-14T05:42:37.611Z,17.30
2018-12-14T05:45:10.030Z,18.60
2018-12-14T05:47:43.201Z,18.60
2018-12-14T05:50:15.548Z,18.77
2018-12-14T05:52:47.857Z,18.27
2018-12-14T05:55:20.169Z,18.20
2018-12-14T05:57:52.495Z,17.73
2018-12-14T06:00:24.805Z,18.93
2018-12-14T06:02:57.120Z,17.60
2018-12-14T06:05:29.448Z,18.53
2018-12-14T06:08:01.881Z,19.10
2018-12-14T06:10:34.333Z,17.60
2018-12-14T06:13:09.176Z,16.50
2018-12-14T06:15:41.121Z,15.27
2018-12-14T06:18:13.469Z,17.70
2018-12-14T06:20:46.541Z,16.20
2018-12-14T06:23:19.018Z,17.90
2018-12-14T06:25:51.569Z,17.10
2018-12-14T06:28:24.162Z,16.50
2018-12-14T06:30:56.557Z,17.70
2018-12-14T06:33:29.112Z,18.03
2018-12-14T06:36:02.005Z,17.80
2018-12-14T06:38:34.676Z,18.10
2018-12-14T06:41:06.987Z,18.43
2018-12-14T06:43:39.499Z,17.80
2018-12-14T06:46:11.945Z,17.83
2018-12-14T06:48:44.475Z,17.13
2018-12-14T06:51:16.900Z,18.07
2018-12-14T06:53:49.256Z,17.73
2018-12-14T06:56:21.588Z,18.10
2018-12-14T06:58:54.166Z,17.30
2018-12-14T07:01:26.469Z,18.30
2018-12-14T07:03:58.851Z,17.67
2018-12-14T07:06:31.205Z,18.33
2018-12-14T07:09:05.135Z,18.47
2018-12-14T07:11:37.677Z,18.23
2018-12-14T07:14:10.049Z,17.93
2018-12-14T07:16:42.703Z,16.23
2018-12-14T07:19:15.032Z,18.60
2018-12-14T07:21:47.427Z,16.47
2018-12-14T07:24:19.738Z,18.30
2018-12-14T07:26:52.492Z,17.83
2018-12-14T07:29:24.861Z,17.60
2018-12-14T07:31:57.239Z,16.73
2018-12-14T07:34:29.532Z,17.93
2018-12-14T07:37:01.910Z,18.47
2018-12-14T07:39:34.272Z,16.93
2018-12-14T07:42:06.756Z,17.13
2018-12-14T07:44:39.933Z,18.23
2018-12-14T07:47:12.657Z,17.23
2018-12-14T07:49:45.086Z,17.37
2018-12-14T07:52:17.465Z,19.13
2018-12-14T07:54:49.813Z,18.60
2018-12-14T07:57:22.187Z,17.73
2018-12-14T07:59:54.620Z,18.20
2018-12-14T08:02:26.952Z,18.87
2018-12-14T08:04:59.291Z,18.70
2018-12-14T08:07:31.790Z,18.57
2018-12-14T08:10:04.906Z,19.03
2018-12-14T08:12:37.334Z,18.00
2018-12-14T08:15:11.469Z,18.23
2018-12-14T08:17:44.035Z,17.90
2018-12-14T08:20:17.219Z,17.63
2018-12-14T08:22:49.869Z,18.30
2018-12-14T08:25:22.461Z,18.07
2018-12-14T08:27:54.958Z,17.43
2018-12-14T08:30:27.437Z,17.60
2018-12-14T08:32:59.737Z,17.70
2018-12-14T08:35:32.123Z,17.63
2018-12-14T08:38:04.518Z,17.37
2018-12-14T08:40:36.960Z,17.23
2018-12-14T08:43:09.316Z,16.20
2018-12-14T08:45:41.797Z,16.07
2018-12-14T08:48:14.370Z,16.17
2018-12-14T08:50:46.915Z,15.33
2018-12-14T08:53:19.606Z,15.57
2018-12-14T08:55:52.104Z,16.53
2018-12-14T08:58:24.548Z,16.30
2018-12-14T09:00:56.882Z,16.33
2018-12-14T09:03:29.600Z,16.77
2018-12-14T09:06:02.712Z,16.80
2018-12-14T09:08:35.185Z,16.63
2018-12-14T09:11:07.571Z,16.27
2018-12-14T09:13:39.962Z,15.90
2018-12-14T09:16:12.438Z,15.70
2018-12-14T09:18:45.297Z,16.40
2018-12-14T09:21:17.723Z,15.50
2018-12-14T09:23:50.090Z,15.63
2018-12-14T09:26:22.637Z,15.73
2018-12-14T09:28:55.309Z,16.33
2018-12-14T09:31:28.216Z,15.53
2018-12-14T09:34:00.593Z,15.83
2018-12-14T09:36:32.907Z,16.53
2018-12-14T09:39:06.209Z,16.33
2018-12-14T09:41:38.530Z,16.17
2018-12-14T09:44:10.913Z,17.13
2018-12-14T09:46:43.274Z,13.87
2018-12-14T09:49:16.637Z,15.97
2018-12-14T09:51:49.175Z,15.07
2018-12-14T09:54:21.630Z,14.67
2018-12-14T09:56:53.981Z,13.73
2018-12-14T09:59:26.380Z,13.93
2018-12-14T10:01:58.724Z,13.53
2018-12-14T10:04:31.124Z,15.17
2018-12-14T10:07:03.674Z,15.53
2018-12-14T10:09:36.175Z,12.47
2018-12-14T10:12:08.704Z,12.80
2018-12-14T10:14:41.779Z,13.40
2018-12-14T10:17:14.214Z,13.07
2018-12-14T10:19:46.665Z,11.23
2018-12-14T10:22:19.116Z,11.83
2018-12-14T10:24:51.768Z,11.90
2018-12-14T10:27:24.077Z,11.20
2018-12-14T10:29:56.607Z,12.20
2018-12-14T10:32:28.999Z,11.70
2018-12-14T10:35:01.385Z,12.93
2018-12-14T10:37:33.760Z,12.03
2018-12-14T10:40:08.156Z,10.23
2018-12-14T10:42:40.469Z,12.07
2018-12-14T10:45:12.843Z,12.77
2018-12-14T10:47:45.342Z,11.17
2018-12-14T10:50:17.700Z,11.07
2018-12-14T10:52:50.109Z,10.33
2018-12-14T10:55:22.573Z,10.60
2018-12-14T10:57:55.149Z,10.27
2018-12-14T11:00:33.268Z,9.47
2018-12-14T11:03:05.697Z,10.67
2018-12-14T11:05:38.069Z,9.50
2018-12-14T11:08:10.405Z,12.77
2018-12-14T11:10:42.788Z,13.10
2018-12-14T11:13:15.333Z,10.03
2018-12-14T11:15:47.803Z,10.47
2018-12-14T11:18:20.097Z,10.47
2018-12-14T11:20:52.508Z,10.60
2018-12-14T11:23:24.887Z,8.77
2018-12-14T11:25:57.365Z,9.27
2018-12-14T11:28:29.739Z,8.87
2018-12-14T11:31:02.076Z,9.57
2018-12-14T11:33:34.634Z,9.03
2018-12-14T11:36:07.130Z,9.50
2018-12-14T11:38:39.441Z,9.87
2018-12-14T11:41:18.291Z,8.60
2018-12-14T11:43:46.175Z,9.30
2018-12-14T11:46:18.652Z,9.60
2018-12-14T11:48:50.990Z,9.43
2018-12-14T11:51:25.125Z,9.67
2018-12-14T11:55:00.537Z,9.03
2018-12-14T11:57:33.116Z,8.93
2018-12-14T12:00:11.363Z,9.23
2018-12-14T12:02:43.796Z,9.43
2018-12-14T12:05:16.100Z,8.63
2018-12-14T12:07:48.891Z,9.70
2018-12-14T12:10:21.255Z,8.80
2018-12-14T12:12:53.772Z,9.13
2018-12-14T12:15:26.168Z,9.40
2018-12-14T12:17:58.561Z,9.50
2018-12-14T12:20:30.904Z,8.57
2018-12-14T12:23:03.379Z,10.03
2018-12-14T12:25:35.720Z,8.43
2018-12-14T12:28:08.179Z,8.13
2018-12-14T12:30:40.658Z,7.77
2018-12-14T12:33:13.024Z,8.67
2018-12-14T12:35:45.588Z,16.50
2018-12-14T12:38:17.901Z,9.37
2018-12-14T12:40:50.304Z,9.33
2018-12-14T12:43:22.689Z,8.77
2018-12-14T12:45:55.038Z,8.37
2018-12-14T12:48:27.484Z,9.07
2018-12-14T12:51:03.093Z,8.70
2018-12-14T12:53:34.425Z,9.97
2018-12-14T12:56:07.216Z,7.80
2018-12-14T12:58:39.683Z,7.27
2018-12-14T13:01:12.100Z,7.83
2018-12-14T13:03:45.111Z,9.70
2018-12-14T13:06:18.438Z,9.40
2018-12-14T13:08:50.942Z,7.90
2018-12-14T13:11:23.266Z,6.90
2018-12-14T13:13:55.690Z,7.77
2018-12-14T13:16:28.236Z,7.73
2018-12-14T13:19:00.644Z,8.20
2018-12-14T13:21:32.966Z,8.30
2018-12-14T13:24:05.471Z,8.53
2018-12-14T13:26:37.809Z,9.87
2018-12-14T13:29:10.314Z,9.40
2018-12-14T13:31:42.679Z,9.00
2018-12-14T13:34:15.248Z,12.57
2018-12-14T13:36:47.989Z,9.57
2018-12-14T13:39:20.606Z,11.13
2018-12-14T13:41:52.914Z,11.27
2018-12-14T13:44:26.332Z,11.50
2018-12-14T13:46:58.684Z,11.97
2018-12-14T13:49:32.639Z,11.20
2018-12-14T13:52:05.090Z,12.57
2018-12-14T13:54:37.722Z,12.13
2018-12-14T13:57:10.123Z,10.90
2018-12-14T13:59:42.568Z,11.07
2018-12-14T14:02:14.900Z,9.37
2018-12-14T14:04:47.254Z,11.00
2018-12-14T14:07:19.641Z,10.73
2018-12-14T14:09:52.144Z,11.03
2018-12-14T14:12:30.651Z,10.53
2018-12-14T14:14:59.387Z,10.40
2018-12-14T14:17:32.345Z,11.53
2018-12-14T14:20:04.858Z,11.03
2018-12-14T14:22:37.206Z,12.27
2018-12-14T14:25:09.870Z,12.83
2018-12-14T14:27:42.221Z,20.73
2018-12-14T14:30:14.799Z,13.30
2018-12-14T14:32:47.319Z,13.87
2018-12-14T14:35:19.682Z,13.53
2018-12-14T14:37:57.367Z,12.13
2018-12-14T14:40:26.512Z,13.13
2018-12-14T14:42:58.965Z,13.30
2018-12-14T14:45:31.605Z,13.27
2018-12-14T14:48:03.919Z,13.03
2018-12-14T14:50:36.442Z,14.10
2018-12-14T14:53:08.756Z,14.87
2018-12-14T14:55:41.583Z,14.00
2018-12-14T14:58:14.085Z,14.30
2018-12-14T15:00:46.657Z,13.67
2018-12-14T15:03:19.136Z,14.13
2018-12-14T15:05:52.597Z,14.73
2018-12-14T15:08:24.931Z,15.13
2018-12-14T15:10:57.441Z,14.93
2018-12-14T15:13:29.750Z,16.47
2018-12-14T15:16:02.295Z,18.63
2018-12-14T15:18:35.010Z,20.97
2018-12-14T15:21:07.612Z,19.53
2018-12-14T15:23:39.923Z,47.30
2018-12-14T15:26:12.498Z,18.10
2018-12-14T15:28:44.833Z,17.17
2018-12-14T15:31:17.518Z,17.47
2018-12-14T15:33:49.818Z,17.37
2018-12-14T15:36:22.170Z,17.57
2018-12-14T15:38:54.777Z,18.23
2018-12-14T15:41:27.248Z,19.70
2018-12-14T15:43:59.585Z,17.63
2018-12-14T15:46:31.974Z,20.17
2018-12-14T15:49:04.301Z,21.23
2018-12-14T15:51:36.727Z,20.50
2018-12-14T15:54:09.032Z,19.37
2018-12-14T15:56:41.501Z,18.13
2018-12-14T15:59:13.851Z,19.43
2018-12-14T16:01:46.414Z,18.90
2018-12-14T16:04:18.778Z,19.13
2018-12-14T16:06:51.232Z,20.00
2018-12-14T16:09:23.940Z,20.33
2018-12-14T16:11:57.349Z,19.93
2018-12-14T16:14:34.353Z,20.00
2018-12-14T16:17:04.585Z,21.70
2018-12-14T16:19:37.182Z,20.57
2018-12-14T16:22:09.581Z,20.87
2018-12-14T16:24:41.951Z,21.57
2018-12-14T16:27:14.553Z,22.87
2018-12-14T16:29:46.984Z,21.67
2018-12-14T16:32:19.386Z,22.83
2018-12-14T16:34:51.825Z,21.20
2018-12-14T16:37:24.240Z,20.37
2018-12-14T16:39:57.336Z,22.03
2018-12-14T16:42:29.707Z,22.63
2018-12-14T16:45:02.185Z,21.00
2018-12-14T16:47:34.604Z,20.90
2018-12-14T16:50:07.080Z,22.60
2018-12-14T16:52:39.504Z,22.60
2018-12-14T16:55:12.026Z,23.33
2018-12-14T16:57:44.507Z,22.03
2018-12-14T17:00:17.154Z,23.63
2018-12-14T17:02:49.608Z,23.17
2018-12-14T17:05:21.944Z,21.93
2018-12-14T17:07:54.315Z,22.37
2018-12-14T17:10:26.718Z,23.17
2018-12-14T17:12:59.073Z,22.37
2018-12-14T17:15:33.418Z,21.73
2018-12-14T17:18:05.816Z,23.03
2018-12-14T17:20:38.565Z,25.20
2018-12-14T17:23:10.988Z,23.77
2018-12-14T17:25:43.416Z,21.13
2018-12-14T17:28:15.865Z,22.17
2018-12-14T17:30:48.293Z,22.20
2018-12-14T17:33:20.607Z,23.20
2018-12-14T17:35:52.957Z,25.37
2018-12-14T17:38:25.399Z,28.87
2018-12-14T17:40:58.011Z,26.83
2018-12-14T17:43:30.436Z,24.37
2018-12-14T17:46:03.015Z,25.70
2018-12-14T17:48:35.457Z,24.90
2018-12-14T17:51:09.946Z,24.03
2018-12-14T17:53:42.308Z,25.40
2018-12-14T17:56:14.737Z,25.07
2018-12-14T17:58:47.318Z,22.93
2018-12-14T18:01:19.908Z,23.70
2018-12-14T18:03:52.331Z,23.67
2018-12-14T18:06:24.707Z,24.43
2018-12-14T18:08:57.144Z,23.60
2018-12-14T18:11:29.552Z,21.63
2018-12-14T18:14:02.020Z,24.77
2018-12-14T18:16:34.714Z,23.73
2018-12-14T18:19:07.275Z,22.73
2018-12-14T18:21:39.650Z,24.43
2018-12-14T18:24:11.973Z,24.97
2018-12-14T18:26:44.337Z,23.93
2018-12-14T18:29:16.668Z,22.70
2018-12-14T18:31:49.008Z,23.00
2018-12-14T18:34:21.453Z,23.73
2018-12-14T18:36:53.817Z,23.97
2018-12-14T18:39:26.135Z,24.87
2018-12-14T18:41:58.524Z,24.00
2018-12-14T18:44:30.841Z,23.67
2018-12-14T18:47:03.260Z,24.57
2018-12-14T18:49:35.575Z,24.03
2018-12-14T18:52:07.971Z,24.53
2018-12-14T18:54:40.331Z,24.70
2018-12-14T18:57:12.813Z,24.13
2018-12-14T18:59:45.167Z,25.40
2018-12-14T19:02:17.622Z,26.37
2018-12-14T19:04:50.129Z,24.53
2018-12-14T19:07:22.538Z,26.70
2018-12-14T19:09:54.928Z,25.30
2018-12-14T19:12:27.748Z,25.03
2018-12-14T19:15:00.364Z,25.83
2018-12-14T19:17:32.723Z,24.93
2018-12-14T19:20:05.733Z,25.30
2018-12-14T19:22:38.206Z,24.93
2018-12-14T19:25:10.542Z,25.37
2018-12-14T19:27:43.037Z,24.87
2018-12-14T19:30:15.487Z,25.03
2018-12-14T19:32:47.885Z,25.83
2018-12-14T19:35:20.353Z,26.90
2018-12-14T19:37:52.780Z,25.27
2018-12-14T19:40:25.136Z,24.50
2018-12-14T19:42:57.741Z,25.17
2018-12-14T19:45:30.514Z,23.87
2018-12-14T19:48:03.520Z,24.53
2018-12-14T19:50:35.844Z,25.97
2018-12-14T19:53:08.217Z,24.53
2018-12-14T19:55:40.534Z,24.33
2018-12-14T19:58:12.884Z,25.10
2018-12-14T20:00:45.188Z,24.07
2018-12-14T20:03:17.536Z,26.10
2018-12-14T20:05:49.932Z,23.20
2018-12-14T20:08:22.274Z,24.90
2018-12-14T20:10:54.688Z,24.50
2018-12-14T20:13:27.112Z,26.77
2018-12-14T20:15:59.500Z,24.57
2018-12-14T20:18:31.980Z,23.23
2018-12-14T20:21:04.332Z,23.93
2018-12-14T20:23:36.734Z,24.10
2018-12-14T20:26:09.099Z,24.23
2018-12-14T20:28:41.493Z,25.17
2018-12-14T20:31:13.874Z,23.13
2018-12-14T20:33:46.384Z,23.93
2018-12-14T20:36:18.702Z,23.47
2018-12-14T20:38:51.020Z,23.67
2018-12-14T20:41:23.384Z,23.50
2018-12-14T20:43:55.862Z,22.77
2018-12-14T20:46:28.332Z,21.97
2018-12-14T20:49:00.710Z,21.63
2018-12-14T20:51:33.071Z,21.63
2018-12-14T20:54:05.429Z,22.30
2018-12-14T20:56:37.844Z,22.30
2018-12-14T20:59:10.212Z,24.17
2018-12-14T21:01:42.605Z,22.47
2018-12-14T21:04:15.108Z,21.10
2018-12-14T21:06:47.610Z,22.13
2018-12-14T21:09:19.984Z,20.10
2018-12-14T21:11:52.433Z,21.10
2018-12-14T21:14:25.000Z,20.10
2018-12-14T21:16:57.345Z,18.93
2018-12-14T21:19:29.904Z,21.50
2018-12-14T21:22:02.284Z,20.40
2018-12-14T21:24:34.808Z,20.40
2018-12-14T21:27:07.445Z,20.07
2018-12-14T21:29:39.771Z,18.97
2018-12-14T21:32:12.143Z,19.43
2018-12-14T21:34:44.500Z,18.73
2018-12-14T21:37:16.888Z,18.47
2018-12-14T21:39:49.259Z,19.07
2018-12-14T21:42:21.679Z,19.70
2018-12-14T21:44:55.173Z,18.60
2018-12-14T21:47:27.694Z,19.30
2018-12-14T21:50:00.056Z,18.47
2018-12-14T21:52:32.640Z,19.37
2018-12-14T21:55:06.028Z,21.07
2018-12-14T21:57:39.106Z,20.23
2018-12-14T22:00:11.736Z,20.43
2018-12-14T22:02:44.069Z,20.83
2018-12-14T22:05:17.933Z,19.87
2018-12-14T22:07:50.253Z,20.63
2018-12-14T22:10:22.805Z,21.23
2018-12-14T22:12:55.392Z,21.23
2018-12-14T22:15:27.949Z,20.60
2018-12-14T22:18:00.322Z,20.23
2018-12-14T22:20:32.792Z,20.03
2018-12-14T22:23:06.067Z,19.80
2018-12-14T22:25:38.745Z,20.73
2018-12-14T22:28:11.233Z,19.83
2018-12-14T22:30:43.582Z,19.90
2018-12-14T22:33:15.996Z,18.67
2018-12-14T22:35:48.590Z,19.70
2018-12-14T22:38:21.031Z,19.87
2018-12-14T22:40:53.620Z,17.97
2018-12-14T22:43:26.008Z,16.77
2018-12-14T22:45:58.492Z,17.10
2018-12-14T22:48:30.953Z,17.30
2018-12-14T22:51:03.441Z,17.87
2018-12-14T22:53:35.765Z,17.00
2018-12-14T22:56:08.158Z,17.67
2018-12-14T22:58:40.689Z,18.07
2018-12-14T23:01:13.244Z,17.60
2018-12-14T23:03:45.559Z,16.70
2018-12-14T23:06:18.034Z,16.83
2018-12-14T23:08:50.351Z,18.07
2018-12-14T23:11:22.854Z,17.23
2018-12-14T23:13:55.267Z,16.53
2018-12-14T23:16:27.632Z,17.43
2018-12-14T23:18:59.965Z,17.20
2018-12-14T23:21:32.461Z,16.60
2018-12-14T23:24:04.779Z,16.20
2018-12-14T23:26:37.177Z,15.50
2018-12-14T23:29:09.489Z,16.53
2018-12-14T23:31:41.941Z,15.97
2018-12-14T23:34:14.259Z,16.20
2018-12-14T23:36:46.608Z,16.40
2018-12-14T23:39:18.925Z,16.40
2018-12-14T23:41:51.225Z,14.67
2018-12-14T23:44:23.653Z,15.03
2018-12-14T23:46:58.869Z,15.90
2018-12-14T23:49:30.471Z,14.70
2018-12-14T23:52:02.811Z,14.63
2018-12-14T23:54:35.133Z,15.03
2018-12-14T23:57:12.233Z,14.83
2018-12-14T23:59:41.881Z,14.33
